Sunday, February 07, 2016
01:33 UTC
  |  Log In   |  Register Free
Airport Search:

Owatonna Degner Regional Airport
(KOWA)

Owatonna Degner Regional Airport Diagram
No Airport Diagram Available

FAA data valid effective Dec 10 2015 - Feb 4 2016 (unless otherwise noted).

 
 
 
 
 
 
 
 
 
 
 
 
 
 
Current Aviation Weather for KOWA

Weather Summary


The most recent METAR observation for OWA was updated at: 12:41 UTC
METAR for KOWA is not available. Closest METAR is for KFBL
KOWA  (most recent observation was updatred at 70:11 UTC)
070115Z AUTO 17014G20KT 10SM SCT100 00/M03 A2988 RMK AO2

KFBL  (12.5 nm SE)   (most recent observation was updated at 70:11 UTC)
070114Z AUTO 18009G15KT 10SM SCT110 01/M03 A2988 RMK AO2

KACQ  (13.0 nm NE)   (most recent observation was updated at 70:11 UTC)
070115Z AUTO 19015KT 10SM CLR 00/M02 A2989 RMK AO2

TAF for KOWA is not available.
GlobalAir.com is loading additional information.
 Current Weather at OWA
32.0 F° (0.0 C°)

South winds at 16.1 mph
Pressure:
29.92 in
Humidity:
80%
Wind:
South at 16.1 mph
Dew Point:
26.6 F° (-3.0 C°)
Visibility:
10.00 mi
OWA NOAA Radar




Find All Airport Services Find A Hotel Find A Rental Car Find A Golf Course Find A Restaurant $100 Hamburger



Airport Weather Forecast for KOWA

Translated METAR for KOWA (0115 UTC)
METAR:
KOWA 070115Z AUTO 17014G20KT 10SM SCT100 00/M03 A2988 RMK AO2
Conditions at:
KOWA (Owatonna Degner Rgnl, MN) observed 0115 UTC 06 February 2016
Temperature:
0°C (32°F)
Dewpoint:
-3°C (26.6°F) [RH = 80.2]
Pressure:
29.88 inches Hg (1011.9 mb)
Winds:
from the S (170 degrees) at 16.1 mph (14 knots: 7.2 m/s)
gusting to 23 mph (20 knots: 10.3 m/s)
Visibility:
10 mile(s)
Ceiling:
at least 12,000 feet AGL
Clouds:
Scattered Clouds at 10,000 feet AGL
Remarks:
site is un-manned
site is automated and HAS a precipitation sensor

Translated TAF for TAF for OWA is not available. Refer to local area forecast.
FBO's on the Field
FBO Company Facility Photos Services Transportation Aviation Fuel Prices: Prices include tax
Catering Weather Repair Courtesy Rental Type 100LL JetA JetA+ MOGAS 8087
 
Owatonna Degner Regional Airport

This FBO has not yet been rated
FS:Avfuel
Last Updated: Feb-04
Login to update fuel prices
SS:
Contact Owatonna Degner Regional AirportMore FBO Information
 
Add another FBO Facility Photos Catering Weather Repair Courtesy Rental Type 100LL JetA JetA+ MOGAS 8087
Services Transportation Aviation Fuel Prices: Prices include tax


model-print
model-print
model-print
model-print